sensor_id;sensor_type;location;lat;lon;timestamp;P1;durP1;ratioP1;P2;durP2;ratioP2
77722;SDS011;67811;42.656;23.394;2023-04-08T00:02:00;15.57;;;8.48;;
77722;SDS011;67811;42.656;23.394;2023-04-08T00:04:25;14.27;;;8.45;;
77722;SDS011;67811;42.656;23.394;2023-04-08T00:06:51;15.07;;;10.20;;
77722;SDS011;67811;42.656;23.394;2023-04-08T00:09:16;16.13;;;9.75;;
77722;SDS011;67811;42.656;23.394;2023-04-08T00:11:41;13.48;;;9.25;;
77722;SDS011;67811;42.656;23.394;2023-04-08T00:14:07;15.98;;;8.43;;
77722;SDS011;67811;42.656;23.394;2023-04-08T00:16:32;13.40;;;8.43;;
77722;SDS011;67811;42.656;23.394;2023-04-08T00:18:57;16.95;;;9.27;;
77722;SDS011;67811;42.656;23.394;2023-04-08T00:21:23;14.70;;;8.48;;
77722;SDS011;67811;42.656;23.394;2023-04-08T00:23:48;12.98;;;7.57;;
77722;SDS011;67811;42.656;23.394;2023-04-08T00:26:14;15.48;;;8.40;;
77722;SDS011;67811;42.656;23.394;2023-04-08T00:28:39;15.68;;;10.43;;
77722;SDS011;67811;42.656;23.394;2023-04-08T00:31:04;11.32;;;8.63;;
77722;SDS011;67811;42.656;23.394;2023-04-08T00:33:30;10.50;;;7.18;;
77722;SDS011;67811;42.656;23.394;2023-04-08T00:35:55;19.50;;;11.45;;
77722;SDS011;67811;42.656;23.394;2023-04-08T00:38:20;22.17;;;13.32;;
77722;SDS011;67811;42.656;23.394;2023-04-08T00:40:45;22.98;;;12.23;;
77722;SDS011;67811;42.656;23.394;2023-04-08T00:43:11;21.02;;;12.70;;
77722;SDS011;67811;42.656;23.394;2023-04-08T00:45:36;21.73;;;12.23;;
77722;SDS011;67811;42.656;23.394;2023-04-08T00:48:02;25.08;;;13.90;;
77722;SDS011;67811;42.656;23.394;2023-04-08T00:50:28;23.10;;;15.10;;
77722;SDS011;67811;42.656;23.394;2023-04-08T00:52:53;19.52;;;12.35;;
77722;SDS011;67811;42.656;23.394;2023-04-08T00:55:19;18.92;;;12.82;;
77722;SDS011;67811;42.656;23.394;2023-04-08T00:57:44;23.55;;;13.63;;
77722;SDS011;67811;42.656;23.394;2023-04-08T01:00:10;23.88;;;13.30;;
77722;SDS011;67811;42.656;23.394;2023-04-08T01:02:55;18.45;;;11.73;;
77722;SDS011;67811;42.656;23.394;2023-04-08T01:08:29;22.27;;;13.50;;
77722;SDS011;67811;42.656;23.394;2023-04-08T01:10:57;18.42;;;13.55;;
77722;SDS011;67811;42.656;23.394;2023-04-08T01:13:25;20.75;;;13.23;;
77722;SDS011;67811;42.656;23.394;2023-04-08T01:15:55;25.27;;;14.15;;
77722;SDS011;67811;42.656;23.394;2023-04-08T01:18:21;23.40;;;12.35;;
77722;SDS011;67811;42.656;23.394;2023-04-08T01:20:48;24.63;;;14.30;;
77722;SDS011;67811;42.656;23.394;2023-04-08T01:23:29;22.33;;;13.30;;
77722;SDS011;67811;42.656;23.394;2023-04-08T01:26:03;18.75;;;13.15;;
77722;SDS011;67811;42.656;23.394;2023-04-08T01:28:28;21.85;;;14.95;;
77722;SDS011;67811;42.656;23.394;2023-04-08T01:30:55;27.35;;;13.73;;
77722;SDS011;67811;42.656;23.394;2023-04-08T01:33:22;20.67;;;12.88;;
77722;SDS011;67811;42.656;23.394;2023-04-08T01:35:48;17.60;;;12.00;;
77722;SDS011;67811;42.656;23.394;2023-04-08T01:38:16;21.45;;;12.32;;
77722;SDS011;67811;42.656;23.394;2023-04-08T01:40:43;16.10;;;11.05;;
77722;SDS011;67811;42.656;23.394;2023-04-08T01:43:12;18.40;;;11.68;;
77722;SDS011;67811;42.656;23.394;2023-04-08T01:45:41;17.92;;;11.02;;
77722;SDS011;67811;42.656;23.394;2023-04-08T01:48:11;21.50;;;10.45;;
77722;SDS011;67811;42.656;23.394;2023-04-08T01:50:37;17.30;;;10.88;;
77722;SDS011;67811;42.656;23.394;2023-04-08T01:53:08;19.35;;;10.50;;
77722;SDS011;67811;42.656;23.394;2023-04-08T01:55:34;18.20;;;9.65;;
77722;SDS011;67811;42.656;23.394;2023-04-08T01:58:01;13.70;;;8.10;;
77722;SDS011;67811;42.656;23.394;2023-04-08T02:00:29;15.38;;;10.00;;
77722;SDS011;67811;42.656;23.394;2023-04-08T02:02:55;16.98;;;10.38;;
77722;SDS011;67811;42.656;23.394;2023-04-08T02:05:22;16.45;;;10.50;;
77722;SDS011;67811;42.656;23.394;2023-04-08T02:07:47;20.58;;;11.57;;
77722;SDS011;67811;42.656;23.394;2023-04-08T02:10:13;18.83;;;11.35;;
77722;SDS011;67811;42.656;23.394;2023-04-08T02:12:38;14.23;;;10.18;;
77722;SDS011;67811;42.656;23.394;2023-04-08T02:15:04;14.48;;;9.70;;
77722;SDS011;67811;42.656;23.394;2023-04-08T02:18:13;15.05;;;10.23;;
77722;SDS011;67811;42.656;23.394;2023-04-08T02:20:26;16.67;;;10.60;;
77722;SDS011;67811;42.656;23.394;2023-04-08T02:23:30;19.27;;;11.15;;
77722;SDS011;67811;42.656;23.394;2023-04-08T02:25:58;17.45;;;10.23;;
77722;SDS011;67811;42.656;23.394;2023-04-08T02:28:26;17.75;;;10.68;;
77722;SDS011;67811;42.656;23.394;2023-04-08T02:30:54;18.63;;;10.52;;
77722;SDS011;67811;42.656;23.394;2023-04-08T02:33:22;19.00;;;12.38;;
77722;SDS011;67811;42.656;23.394;2023-04-08T02:35:51;10.82;;;8.05;;
77722;SDS011;67811;42.656;23.394;2023-04-08T02:38:18;18.88;;;11.27;;
77722;SDS011;67811;42.656;23.394;2023-04-08T02:40:44;20.63;;;11.20;;
77722;SDS011;67811;42.656;23.394;2023-04-08T02:43:09;16.48;;;11.50;;
77722;SDS011;67811;42.656;23.394;2023-04-08T02:45:39;15.90;;;9.68;;
77722;SDS011;67811;42.656;23.394;2023-04-08T02:48:06;17.38;;;11.88;;
77722;SDS011;67811;42.656;23.394;2023-04-08T02:50:31;15.98;;;9.90;;
77722;SDS011;67811;42.656;23.394;2023-04-08T02:52:57;17.55;;;11.15;;
77722;SDS011;67811;42.656;23.394;2023-04-08T02:55:22;14.80;;;10.60;;
77722;SDS011;67811;42.656;23.394;2023-04-08T02:57:47;19.20;;;11.32;;
77722;SDS011;67811;42.656;23.394;2023-04-08T03:00:13;20.02;;;11.32;;
77722;SDS011;67811;42.656;23.394;2023-04-08T03:02:39;19.30;;;11.50;;
77722;SDS011;67811;42.656;23.394;2023-04-08T03:05:04;19.92;;;11.48;;
77722;SDS011;67811;42.656;23.394;2023-04-08T03:07:30;20.77;;;12.55;;
77722;SDS011;67811;42.656;23.394;2023-04-08T03:09:56;25.10;;;13.80;;
77722;SDS011;67811;42.656;23.394;2023-04-08T03:12:22;20.20;;;12.13;;
77722;SDS011;67811;42.656;23.394;2023-04-08T03:14:48;18.83;;;13.38;;
77722;SDS011;67811;42.656;23.394;2023-04-08T03:17:14;22.02;;;13.23;;
77722;SDS011;67811;42.656;23.394;2023-04-08T03:19:39;27.08;;;14.13;;
77722;SDS011;67811;42.656;23.394;2023-04-08T03:22:04;20.83;;;14.25;;
77722;SDS011;67811;42.656;23.394;2023-04-08T03:24:30;21.70;;;13.50;;
77722;SDS011;67811;42.656;23.394;2023-04-08T03:26:55;24.88;;;15.55;;
77722;SDS011;67811;42.656;23.394;2023-04-08T03:29:20;29.83;;;16.15;;
77722;SDS011;67811;42.656;23.394;2023-04-08T03:31:46;21.70;;;14.23;;
77722;SDS011;67811;42.656;23.394;2023-04-08T03:34:11;21.45;;;14.70;;
77722;SDS011;67811;42.656;23.394;2023-04-08T03:36:36;25.15;;;14.52;;
77722;SDS011;67811;42.656;23.394;2023-04-08T03:39:01;24.15;;;13.13;;
77722;SDS011;67811;42.656;23.394;2023-04-08T03:41:27;21.63;;;14.00;;
77722;SDS011;67811;42.656;23.394;2023-04-08T03:43:52;20.85;;;14.35;;
77722;SDS011;67811;42.656;23.394;2023-04-08T03:46:17;21.23;;;12.90;;
77722;SDS011;67811;42.656;23.394;2023-04-08T03:48:43;26.38;;;14.40;;
77722;SDS011;67811;42.656;23.394;2023-04-08T03:51:08;21.58;;;13.48;;
77722;SDS011;67811;42.656;23.394;2023-04-08T03:53:33;24.27;;;15.57;;
77722;SDS011;67811;42.656;23.394;2023-04-08T03:55:58;24.63;;;15.75;;
77722;SDS011;67811;42.656;23.394;2023-04-08T03:58:24;27.50;;;16.20;;
77722;SDS011;67811;42.656;23.394;2023-04-08T04:00:49;30.80;;;16.58;;
77722;SDS011;67811;42.656;23.394;2023-04-08T04:03:14;29.50;;;14.43;;
77722;SDS011;67811;42.656;23.394;2023-04-08T04:05:40;27.75;;;15.02;;
77722;SDS011;67811;42.656;23.394;2023-04-08T04:08:05;24.33;;;14.82;;
77722;SDS011;67811;42.656;23.394;2023-04-08T04:10:31;25.88;;;15.75;;
77722;SDS011;67811;42.656;23.394;2023-04-08T04:12:56;25.33;;;15.30;;
77722;SDS011;67811;42.656;23.394;2023-04-08T04:15:22;26.30;;;13.52;;
77722;SDS011;67811;42.656;23.394;2023-04-08T04:17:47;24.80;;;15.45;;
77722;SDS011;67811;42.656;23.394;2023-04-08T04:20:13;26.58;;;15.27;;
77722;SDS011;67811;42.656;23.394;2023-04-08T04:22:38;22.80;;;14.05;;
77722;SDS011;67811;42.656;23.394;2023-04-08T04:25:03;25.05;;;15.38;;
77722;SDS011;67811;42.656;23.394;2023-04-08T04:27:29;22.30;;;14.48;;
77722;SDS011;67811;42.656;23.394;2023-04-08T04:29:54;22.85;;;14.80;;
77722;SDS011;67811;42.656;23.394;2023-04-08T04:32:20;15.02;;;10.88;;
77722;SDS011;67811;42.656;23.394;2023-04-08T04:34:45;14.13;;;9.40;;
77722;SDS011;67811;42.656;23.394;2023-04-08T04:37:10;19.00;;;11.23;;
77722;SDS011;67811;42.656;23.394;2023-04-08T04:39:35;11.10;;;8.20;;
77722;SDS011;67811;42.656;23.394;2023-04-08T04:42:01;11.07;;;6.38;;
77722;SDS011;67811;42.656;23.394;2023-04-08T04:44:26;15.10;;;9.02;;
77722;SDS011;67811;42.656;23.394;2023-04-08T04:46:51;10.30;;;8.88;;
77722;SDS011;67811;42.656;23.394;2023-04-08T04:49:17;10.60;;;8.15;;
77722;SDS011;67811;42.656;23.394;2023-04-08T04:51:42;14.73;;;9.90;;
77722;SDS011;67811;42.656;23.394;2023-04-08T04:54:07;15.32;;;10.65;;
77722;SDS011;67811;42.656;23.394;2023-04-08T04:56:33;22.23;;;10.57;;
77722;SDS011;67811;42.656;23.394;2023-04-08T04:58:58;14.80;;;9.93;;
77722;SDS011;67811;42.656;23.394;2023-04-08T05:01:23;16.67;;;9.88;;
77722;SDS011;67811;42.656;23.394;2023-04-08T05:03:49;18.42;;;9.27;;
77722;SDS011;67811;42.656;23.394;2023-04-08T05:06:14;15.02;;;10.23;;
77722;SDS011;67811;42.656;23.394;2023-04-08T05:08:39;15.82;;;9.60;;
77722;SDS011;67811;42.656;23.394;2023-04-08T05:11:08;16.38;;;10.07;;
77722;SDS011;67811;42.656;23.394;2023-04-08T05:13:33;20.30;;;9.48;;
77722;SDS011;67811;42.656;23.394;2023-04-08T05:15:59;15.77;;;9.82;;
77722;SDS011;67811;42.656;23.394;2023-04-08T05:18:24;18.58;;;11.00;;
77722;SDS011;67811;42.656;23.394;2023-04-08T05:20:50;15.93;;;9.57;;
77722;SDS011;67811;42.656;23.394;2023-04-08T05:23:15;14.57;;;9.80;;
77722;SDS011;67811;42.656;23.394;2023-04-08T05:25:40;17.55;;;11.30;;
77722;SDS011;67811;42.656;23.394;2023-04-08T05:28:05;21.33;;;9.93;;
77722;SDS011;67811;42.656;23.394;2023-04-08T05:30:31;21.70;;;11.18;;
77722;SDS011;67811;42.656;23.394;2023-04-08T05:32:56;16.00;;;10.63;;
77722;SDS011;67811;42.656;23.394;2023-04-08T05:35:21;19.33;;;11.15;;
77722;SDS011;67811;42.656;23.394;2023-04-08T05:37:47;20.70;;;12.88;;
77722;SDS011;67811;42.656;23.394;2023-04-08T05:40:12;18.70;;;12.02;;
77722;SDS011;67811;42.656;23.394;2023-04-08T05:42:37;18.55;;;10.50;;
77722;SDS011;67811;42.656;23.394;2023-04-08T05:45:03;18.75;;;12.55;;
77722;SDS011;67811;42.656;23.394;2023-04-08T05:47:29;18.30;;;12.30;;
77722;SDS011;67811;42.656;23.394;2023-04-08T05:49:54;19.27;;;12.50;;
77722;SDS011;67811;42.656;23.394;2023-04-08T05:52:19;18.58;;;11.65;;
77722;SDS011;67811;42.656;23.394;2023-04-08T05:54:44;14.43;;;9.82;;
77722;SDS011;67811;42.656;23.394;2023-04-08T05:57:10;20.02;;;12.18;;
77722;SDS011;67811;42.656;23.394;2023-04-08T05:59:36;17.85;;;11.50;;
77722;SDS011;67811;42.656;23.394;2023-04-08T06:02:01;19.58;;;12.15;;
77722;SDS011;67811;42.656;23.394;2023-04-08T06:04:26;18.02;;;11.10;;
77722;SDS011;67811;42.656;23.394;2023-04-08T06:06:52;18.08;;;9.55;;
77722;SDS011;67811;42.656;23.394;2023-04-08T06:09:17;18.00;;;12.45;;
77722;SDS011;67811;42.656;23.394;2023-04-08T06:11:42;20.67;;;12.50;;
77722;SDS011;67811;42.656;23.394;2023-04-08T06:14:07;17.02;;;10.50;;
77722;SDS011;67811;42.656;23.394;2023-04-08T06:16:33;19.88;;;11.23;;
77722;SDS011;67811;42.656;23.394;2023-04-08T06:18:58;18.63;;;11.75;;
77722;SDS011;67811;42.656;23.394;2023-04-08T06:21:23;16.70;;;10.93;;
77722;SDS011;67811;42.656;23.394;2023-04-08T06:23:49;18.83;;;12.68;;
77722;SDS011;67811;42.656;23.394;2023-04-08T06:26:14;15.90;;;11.13;;
77722;SDS011;67811;42.656;23.394;2023-04-08T06:28:39;19.77;;;9.65;;
77722;SDS011;67811;42.656;23.394;2023-04-08T06:31:04;19.50;;;11.68;;
77722;SDS011;67811;42.656;23.394;2023-04-08T06:33:30;18.40;;;9.90;;
77722;SDS011;67811;42.656;23.394;2023-04-08T06:36:04;17.45;;;11.80;;
77722;SDS011;67811;42.656;23.394;2023-04-08T06:38:31;15.60;;;10.80;;
77722;SDS011;67811;42.656;23.394;2023-04-08T06:41:02;21.00;;;11.15;;
77722;SDS011;67811;42.656;23.394;2023-04-08T06:43:28;16.27;;;9.32;;
77722;SDS011;67811;42.656;23.394;2023-04-08T06:45:54;21.00;;;11.57;;
77722;SDS011;67811;42.656;23.394;2023-04-08T06:48:19;18.83;;;10.77;;
77722;SDS011;67811;42.656;23.394;2023-04-08T06:50:44;17.25;;;10.07;;
77722;SDS011;67811;42.656;23.394;2023-04-08T06:53:10;19.42;;;10.00;;
77722;SDS011;67811;42.656;23.394;2023-04-08T06:55:35;18.52;;;12.43;;
77722;SDS011;67811;42.656;23.394;2023-04-08T06:58:00;16.92;;;10.30;;
77722;SDS011;67811;42.656;23.394;2023-04-08T07:00:25;16.67;;;9.25;;
77722;SDS011;67811;42.656;23.394;2023-04-08T07:02:51;17.88;;;9.35;;
77722;SDS011;67811;42.656;23.394;2023-04-08T07:05:16;16.40;;;9.13;;
77722;SDS011;67811;42.656;23.394;2023-04-08T07:07:41;12.18;;;9.35;;
77722;SDS011;67811;42.656;23.394;2023-04-08T07:10:07;16.77;;;10.10;;
77722;SDS011;67811;42.656;23.394;2023-04-08T07:12:32;19.38;;;10.32;;
77722;SDS011;67811;42.656;23.394;2023-04-08T07:14:57;18.45;;;9.88;;
77722;SDS011;67811;42.656;23.394;2023-04-08T07:17:23;16.42;;;10.00;;
77722;SDS011;67811;42.656;23.394;2023-04-08T07:19:48;22.02;;;12.90;;
77722;SDS011;67811;42.656;23.394;2023-04-08T07:22:13;17.05;;;10.35;;
77722;SDS011;67811;42.656;23.394;2023-04-08T07:24:39;18.50;;;11.02;;
77722;SDS011;67811;42.656;23.394;2023-04-08T07:27:04;19.35;;;11.25;;
77722;SDS011;67811;42.656;23.394;2023-04-08T07:29:29;19.30;;;12.43;;
77722;SDS011;67811;42.656;23.394;2023-04-08T07:31:55;19.95;;;12.00;;
77722;SDS011;67811;42.656;23.394;2023-04-08T07:34:20;19.05;;;11.85;;
77722;SDS011;67811;42.656;23.394;2023-04-08T07:36:45;18.58;;;12.27;;
77722;SDS011;67811;42.656;23.394;2023-04-08T07:39:11;27.23;;;11.23;;
77722;SDS011;67811;42.656;23.394;2023-04-08T07:41:36;19.25;;;11.68;;
77722;SDS011;67811;42.656;23.394;2023-04-08T07:44:01;16.52;;;10.80;;
77722;SDS011;67811;42.656;23.394;2023-04-08T07:46:27;16.67;;;11.07;;
77722;SDS011;67811;42.656;23.394;2023-04-08T07:48:52;17.10;;;11.32;;
77722;SDS011;67811;42.656;23.394;2023-04-08T07:51:17;18.52;;;11.13;;
77722;SDS011;67811;42.656;23.394;2023-04-08T07:53:42;18.15;;;10.90;;
77722;SDS011;67811;42.656;23.394;2023-04-08T07:56:11;16.92;;;10.90;;
77722;SDS011;67811;42.656;23.394;2023-04-08T07:58:37;25.27;;;12.05;;
77722;SDS011;67811;42.656;23.394;2023-04-08T08:01:03;22.38;;;12.93;;
77722;SDS011;67811;42.656;23.394;2023-04-08T08:03:28;19.77;;;11.88;;
77722;SDS011;67811;42.656;23.394;2023-04-08T08:05:53;17.75;;;11.27;;
77722;SDS011;67811;42.656;23.394;2023-04-08T08:08:18;19.38;;;10.38;;
77722;SDS011;67811;42.656;23.394;2023-04-08T08:10:44;24.17;;;12.68;;
77722;SDS011;67811;42.656;23.394;2023-04-08T08:13:09;16.00;;;10.00;;
77722;SDS011;67811;42.656;23.394;2023-04-08T08:15:34;19.95;;;13.27;;
77722;SDS011;67811;42.656;23.394;2023-04-08T08:18:00;20.60;;;10.55;;
77722;SDS011;67811;42.656;23.394;2023-04-08T08:20:25;17.52;;;10.95;;
77722;SDS011;67811;42.656;23.394;2023-04-08T08:22:50;18.85;;;11.98;;
77722;SDS011;67811;42.656;23.394;2023-04-08T08:25:16;18.60;;;11.65;;
77722;SDS011;67811;42.656;23.394;2023-04-08T08:27:41;18.50;;;11.70;;
77722;SDS011;67811;42.656;23.394;2023-04-08T08:30:06;21.33;;;12.48;;
77722;SDS011;67811;42.656;23.394;2023-04-08T08:32:32;20.52;;;11.07;;
77722;SDS011;67811;42.656;23.394;2023-04-08T08:34:58;18.88;;;12.32;;
77722;SDS011;67811;42.656;23.394;2023-04-08T08:37:23;22.50;;;13.77;;
77722;SDS011;67811;42.656;23.394;2023-04-08T08:39:48;20.77;;;13.07;;
77722;SDS011;67811;42.656;23.394;2023-04-08T08:42:20;24.10;;;12.40;;
77722;SDS011;67811;42.656;23.394;2023-04-08T08:44:47;18.67;;;12.85;;
77722;SDS011;67811;42.656;23.394;2023-04-08T08:47:13;23.67;;;14.55;;
77722;SDS011;67811;42.656;23.394;2023-04-08T08:49:38;20.63;;;12.90;;
77722;SDS011;67811;42.656;23.394;2023-04-08T08:52:04;20.45;;;12.85;;
77722;SDS011;67811;42.656;23.394;2023-04-08T08:54:29;22.40;;;12.98;;
77722;SDS011;67811;42.656;23.394;2023-04-08T08:56:54;20.40;;;11.55;;
77722;SDS011;67811;42.656;23.394;2023-04-08T08:59:20;21.58;;;12.40;;
77722;SDS011;67811;42.656;23.394;2023-04-08T09:01:45;19.85;;;12.63;;
77722;SDS011;67811;42.656;23.394;2023-04-08T09:06:36;21.20;;;11.98;;
77722;SDS011;67811;42.656;23.394;2023-04-08T09:09:02;21.95;;;11.75;;
77722;SDS011;67811;42.656;23.394;2023-04-08T09:11:28;18.20;;;10.70;;
77722;SDS011;67811;42.656;23.394;2023-04-08T09:13:53;14.40;;;9.93;;
77722;SDS011;67811;42.656;23.394;2023-04-08T09:16:21;22.48;;;12.82;;
77722;SDS011;67811;42.656;23.394;2023-04-08T09:18:46;24.02;;;13.10;;
77722;SDS011;67811;42.656;23.394;2023-04-08T09:21:12;19.55;;;13.10;;
77722;SDS011;67811;42.656;23.394;2023-04-08T09:23:39;20.92;;;11.88;;
77722;SDS011;67811;42.656;23.394;2023-04-08T09:26:10;17.63;;;11.73;;
77722;SDS011;67811;42.656;23.394;2023-04-08T09:28:38;20.88;;;12.70;;
77722;SDS011;67811;42.656;23.394;2023-04-08T09:31:17;22.35;;;11.95;;
77722;SDS011;67811;42.656;23.394;2023-04-08T09:33:52;18.50;;;10.57;;
77722;SDS011;67811;42.656;23.394;2023-04-08T09:36:18;19.73;;;12.75;;
77722;SDS011;67811;42.656;23.394;2023-04-08T09:38:44;20.58;;;11.85;;
77722;SDS011;67811;42.656;23.394;2023-04-08T09:41:13;16.80;;;10.73;;
77722;SDS011;67811;42.656;23.394;2023-04-08T09:43:44;23.50;;;13.00;;
77722;SDS011;67811;42.656;23.394;2023-04-08T09:46:12;20.30;;;10.15;;
77722;SDS011;67811;42.656;23.394;2023-04-08T09:48:39;19.95;;;12.50;;
77722;SDS011;67811;42.656;23.394;2023-04-08T09:51:06;23.88;;;12.45;;
77722;SDS011;67811;42.656;23.394;2023-04-08T09:53:36;22.63;;;12.77;;
77722;SDS011;67811;42.656;23.394;2023-04-08T09:56:06;20.65;;;12.15;;
77722;SDS011;67811;42.656;23.394;2023-04-08T09:58:49;19.58;;;11.85;;
77722;SDS011;67811;42.656;23.394;2023-04-08T10:01:21;16.50;;;10.63;;
77722;SDS011;67811;42.656;23.394;2023-04-08T10:06:18;20.50;;;11.40;;
77722;SDS011;67811;42.656;23.394;2023-04-08T10:11:13;20.27;;;11.52;;
77722;SDS011;67811;42.656;23.394;2023-04-08T10:13:39;16.30;;;10.25;;
77722;SDS011;67811;42.656;23.394;2023-04-08T10:18:43;15.55;;;9.80;;
77722;SDS011;67811;42.656;23.394;2023-04-08T10:24:01;17.98;;;11.77;;
77722;SDS011;67811;42.656;23.394;2023-04-08T10:26:33;16.30;;;9.70;;
77722;SDS011;67811;42.656;23.394;2023-04-08T10:31:42;18.58;;;10.45;;
77722;SDS011;67811;42.656;23.394;2023-04-08T10:34:24;19.92;;;11.27;;
77722;SDS011;67811;42.656;23.394;2023-04-08T10:36:50;19.25;;;12.18;;
77722;SDS011;67811;42.656;23.394;2023-04-08T10:39:15;17.55;;;10.07;;
77722;SDS011;67811;42.656;23.394;2023-04-08T10:41:44;17.65;;;11.07;;
77722;SDS011;67811;42.656;23.394;2023-04-08T10:46:40;18.85;;;11.40;;
77722;SDS011;67811;42.656;23.394;2023-04-08T10:49:05;21.83;;;12.20;;
77722;SDS011;67811;42.656;23.394;2023-04-08T10:51:30;18.67;;;10.88;;
77722;SDS011;67811;42.656;23.394;2023-04-08T10:54:04;18.08;;;10.85;;
77722;SDS011;67811;42.656;23.394;2023-04-08T10:56:30;15.30;;;9.77;;
77722;SDS011;67811;42.656;23.394;2023-04-08T10:58:55;16.63;;;10.43;;
77722;SDS011;67811;42.656;23.394;2023-04-08T11:01:21;15.60;;;10.18;;
77722;SDS011;67811;42.656;23.394;2023-04-08T11:03:47;14.85;;;9.68;;
77722;SDS011;67811;42.656;23.394;2023-04-08T11:06:13;14.57;;;9.32;;
77722;SDS011;67811;42.656;23.394;2023-04-08T11:08:38;13.43;;;8.70;;
77722;SDS011;67811;42.656;23.394;2023-04-08T11:11:04;16.58;;;10.02;;
77722;SDS011;67811;42.656;23.394;2023-04-08T11:13:32;18.30;;;10.25;;
77722;SDS011;67811;42.656;23.394;2023-04-08T11:15:58;14.48;;;8.27;;
77722;SDS011;67811;42.656;23.394;2023-04-08T11:18:24;16.35;;;9.70;;
77722;SDS011;67811;42.656;23.394;2023-04-08T11:20:50;14.57;;;9.00;;
77722;SDS011;67811;42.656;23.394;2023-04-08T11:23:16;12.85;;;7.45;;
77722;SDS011;67811;42.656;23.394;2023-04-08T11:25:42;15.50;;;10.00;;
77722;SDS011;67811;42.656;23.394;2023-04-08T11:28:12;16.70;;;9.90;;
77722;SDS011;67811;42.656;23.394;2023-04-08T11:30:39;12.60;;;8.75;;
77722;SDS011;67811;42.656;23.394;2023-04-08T11:33:05;18.05;;;9.35;;
77722;SDS011;67811;42.656;23.394;2023-04-08T11:35:31;14.10;;;7.95;;
77722;SDS011;67811;42.656;23.394;2023-04-08T11:37:56;12.73;;;8.95;;
77722;SDS011;67811;42.656;23.394;2023-04-08T11:40:22;11.60;;;7.72;;
77722;SDS011;67811;42.656;23.394;2023-04-08T11:42:47;12.15;;;7.68;;
77722;SDS011;67811;42.656;23.394;2023-04-08T11:45:14;11.60;;;8.40;;
77722;SDS011;67811;42.656;23.394;2023-04-08T11:47:40;15.63;;;9.25;;
77722;SDS011;67811;42.656;23.394;2023-04-08T11:50:05;12.15;;;7.18;;
77722;SDS011;67811;42.656;23.394;2023-04-08T11:52:44;13.50;;;8.38;;
77722;SDS011;67811;42.656;23.394;2023-04-08T11:55:29;10.85;;;6.47;;
77722;SDS011;67811;42.656;23.394;2023-04-08T11:57:56;10.57;;;7.55;;
77722;SDS011;67811;42.656;23.394;2023-04-08T12:00:26;11.38;;;6.85;;
77722;SDS011;67811;42.656;23.394;2023-04-08T12:02:52;13.18;;;9.02;;
77722;SDS011;67811;42.656;23.394;2023-04-08T12:05:17;12.50;;;7.78;;
77722;SDS011;67811;42.656;23.394;2023-04-08T12:07:43;11.15;;;6.90;;
77722;SDS011;67811;42.656;23.394;2023-04-08T12:10:08;9.93;;;6.22;;
77722;SDS011;67811;42.656;23.394;2023-04-08T12:12:35;7.95;;;5.63;;
77722;SDS011;67811;42.656;23.394;2023-04-08T12:15:01;11.65;;;5.68;;
77722;SDS011;67811;42.656;23.394;2023-04-08T12:17:26;6.22;;;5.35;;
77722;SDS011;67811;42.656;23.394;2023-04-08T12:19:51;9.50;;;6.63;;
77722;SDS011;67811;42.656;23.394;2023-04-08T12:22:17;8.63;;;6.13;;
77722;SDS011;67811;42.656;23.394;2023-04-08T12:24:42;11.63;;;6.82;;
77722;SDS011;67811;42.656;23.394;2023-04-08T12:27:07;11.90;;;6.82;;
77722;SDS011;67811;42.656;23.394;2023-04-08T12:29:33;10.88;;;5.90;;
77722;SDS011;67811;42.656;23.394;2023-04-08T12:31:58;9.07;;;7.43;;
77722;SDS011;67811;42.656;23.394;2023-04-08T12:34:24;10.15;;;7.35;;
77722;SDS011;67811;42.656;23.394;2023-04-08T12:36:49;7.57;;;6.13;;
77722;SDS011;67811;42.656;23.394;2023-04-08T12:39:14;10.45;;;6.05;;
77722;SDS011;67811;42.656;23.394;2023-04-08T12:41:40;5.80;;;4.95;;
77722;SDS011;67811;42.656;23.394;2023-04-08T12:44:05;8.43;;;6.22;;
77722;SDS011;67811;42.656;23.394;2023-04-08T12:46:30;6.80;;;5.63;;
77722;SDS011;67811;42.656;23.394;2023-04-08T12:48:56;9.40;;;6.75;;
77722;SDS011;67811;42.656;23.394;2023-04-08T12:51:21;9.63;;;6.03;;
77722;SDS011;67811;42.656;23.394;2023-04-08T12:53:46;9.85;;;6.60;;
77722;SDS011;67811;42.656;23.394;2023-04-08T12:56:12;17.85;;;6.85;;
77722;SDS011;67811;42.656;23.394;2023-04-08T12:58:37;8.23;;;6.80;;
77722;SDS011;67811;42.656;23.394;2023-04-08T13:01:02;12.10;;;6.25;;
77722;SDS011;67811;42.656;23.394;2023-04-08T13:03:28;9.35;;;5.72;;
77722;SDS011;67811;42.656;23.394;2023-04-08T13:05:53;6.47;;;5.88;;
77722;SDS011;67811;42.656;23.394;2023-04-08T13:08:18;8.30;;;5.82;;
77722;SDS011;67811;42.656;23.394;2023-04-08T13:10:43;8.90;;;5.95;;
77722;SDS011;67811;42.656;23.394;2023-04-08T13:13:09;9.63;;;6.75;;
77722;SDS011;67811;42.656;23.394;2023-04-08T13:15:34;7.22;;;4.72;;
77722;SDS011;67811;42.656;23.394;2023-04-08T13:17:59;9.18;;;6.32;;
77722;SDS011;67811;42.656;23.394;2023-04-08T13:20:25;11.00;;;6.85;;
77722;SDS011;67811;42.656;23.394;2023-04-08T13:22:52;9.30;;;6.60;;
77722;SDS011;67811;42.656;23.394;2023-04-08T13:25:17;5.85;;;4.72;;
77722;SDS011;67811;42.656;23.394;2023-04-08T13:27:43;10.73;;;7.32;;
77722;SDS011;67811;42.656;23.394;2023-04-08T13:30:08;12.20;;;6.15;;
77722;SDS011;67811;42.656;23.394;2023-04-08T13:32:34;8.18;;;6.50;;
77722;SDS011;67811;42.656;23.394;2023-04-08T13:34:59;8.65;;;7.25;;
77722;SDS011;67811;42.656;23.394;2023-04-08T13:37:24;11.27;;;6.72;;
77722;SDS011;67811;42.656;23.394;2023-04-08T13:39:50;11.40;;;6.40;;
77722;SDS011;67811;42.656;23.394;2023-04-08T13:42:15;8.10;;;6.78;;
77722;SDS011;67811;42.656;23.394;2023-04-08T13:44:40;13.40;;;7.05;;
77722;SDS011;67811;42.656;23.394;2023-04-08T13:47:06;10.93;;;7.18;;
77722;SDS011;67811;42.656;23.394;2023-04-08T13:49:31;10.40;;;7.07;;
77722;SDS011;67811;42.656;23.394;2023-04-08T13:51:56;9.32;;;7.22;;
77722;SDS011;67811;42.656;23.394;2023-04-08T13:54:21;10.32;;;6.78;;
77722;SDS011;67811;42.656;23.394;2023-04-08T13:56:47;10.05;;;6.93;;
77722;SDS011;67811;42.656;23.394;2023-04-08T13:59:12;9.88;;;6.68;;
77722;SDS011;67811;42.656;23.394;2023-04-08T14:01:37;12.88;;;6.57;;
77722;SDS011;67811;42.656;23.394;2023-04-08T14:04:03;12.13;;;7.55;;
77722;SDS011;67811;42.656;23.394;2023-04-08T14:06:28;13.82;;;7.53;;
77722;SDS011;67811;42.656;23.394;2023-04-08T14:08:53;9.50;;;7.20;;
77722;SDS011;67811;42.656;23.394;2023-04-08T14:11:19;9.77;;;5.68;;
77722;SDS011;67811;42.656;23.394;2023-04-08T14:13:44;14.70;;;7.95;;
77722;SDS011;67811;42.656;23.394;2023-04-08T14:16:10;12.10;;;7.72;;
77722;SDS011;67811;42.656;23.394;2023-04-08T14:18:35;14.95;;;9.85;;
77722;SDS011;67811;42.656;23.394;2023-04-08T14:21:00;13.25;;;7.72;;
77722;SDS011;67811;42.656;23.394;2023-04-08T14:23:25;13.00;;;8.88;;
77722;SDS011;67811;42.656;23.394;2023-04-08T14:25:51;13.13;;;7.68;;
77722;SDS011;67811;42.656;23.394;2023-04-08T14:28:16;11.85;;;9.18;;
77722;SDS011;67811;42.656;23.394;2023-04-08T14:30:41;9.05;;;6.03;;